createdAt,value
2023-04-25T00:00:16.772Z,1.70
2023-04-25T00:02:43.943Z,1.40
2023-04-25T00:05:12.098Z,1.90
2023-04-25T00:07:39.600Z,2.15
2023-04-25T00:10:07.533Z,2.97
2023-04-25T00:12:34.615Z,2.95
2023-04-25T00:15:01.546Z,1.48
2023-04-25T00:17:29.038Z,1.65
2023-04-25T00:22:23.174Z,1.67
2023-04-25T00:24:50.241Z,2.13
2023-04-25T00:27:17.271Z,1.25
2023-04-25T00:29:44.384Z,1.35
2023-04-25T00:32:11.396Z,1.70
2023-04-25T00:34:38.306Z,1.52
2023-04-25T00:37:05.860Z,1.90
2023-04-25T00:39:32.796Z,1.80
2023-04-25T00:41:59.988Z,2.53
2023-04-25T00:44:28.821Z,2.10
2023-04-25T00:46:56.155Z,2.20
2023-04-25T00:49:23.272Z,2.10
2023-04-25T00:51:50.457Z,2.22
2023-04-25T00:54:17.942Z,2.40
2023-04-25T00:59:14.003Z,2.67
2023-04-25T01:01:41.299Z,2.60
2023-04-25T01:04:08.513Z,2.40
2023-04-25T01:06:36.216Z,2.00
2023-04-25T01:09:03.858Z,2.25
2023-04-25T01:11:31.045Z,3.08
2023-04-25T01:13:58.257Z,2.90
2023-04-25T01:16:25.643Z,2.65
2023-04-25T01:21:19.522Z,1.83
2023-04-25T01:23:46.789Z,2.05
2023-04-25T01:26:13.791Z,2.17
2023-04-25T01:28:44.403Z,2.47
2023-04-25T01:31:13.033Z,2.95
2023-04-25T01:33:40.322Z,2.42
2023-04-25T01:36:07.573Z,2.40
2023-04-25T01:38:34.976Z,2.22
2023-04-25T01:41:02.032Z,2.65
2023-04-25T01:43:29.057Z,1.80
2023-04-25T01:45:56.916Z,1.73
2023-04-25T01:48:23.875Z,2.22
2023-04-25T01:50:50.788Z,2.17
2023-04-25T01:53:17.993Z,1.98
2023-04-25T01:55:44.929Z,2.15
2023-04-25T01:58:13.999Z,2.42
2023-04-25T02:00:42.016Z,2.20
2023-04-25T02:03:09.995Z,2.33
2023-04-25T02:05:38.747Z,2.63
2023-04-25T02:08:07.296Z,2.15
2023-04-25T02:10:34.970Z,1.90
2023-04-25T02:13:02.311Z,2.80
2023-04-25T02:15:29.278Z,2.92
2023-04-25T02:17:56.487Z,1.88
2023-04-25T02:20:25.187Z,2.20
2023-04-25T02:22:52.477Z,2.22
2023-04-25T02:25:21.123Z,2.22
2023-04-25T02:27:48.945Z,2.42
2023-04-25T02:30:16.276Z,1.80
2023-04-25T02:32:43.285Z,2.58
2023-04-25T02:35:10.900Z,2.35
2023-04-25T02:37:40.864Z,2.80
2023-04-25T02:40:09.160Z,1.83
2023-04-25T02:42:36.714Z,2.75
2023-04-25T02:45:04.228Z,2.08
2023-04-25T02:47:31.802Z,2.20
2023-04-25T02:49:59.249Z,2.20
2023-04-25T02:52:26.419Z,2.42
2023-04-25T02:54:53.362Z,3.15
2023-04-25T02:57:20.520Z,2.50
2023-04-25T02:59:47.488Z,2.47
2023-04-25T03:02:14.553Z,2.75
2023-04-25T03:04:41.709Z,2.60
2023-04-25T03:07:09.113Z,2.75
2023-04-25T03:09:36.191Z,2.65
2023-04-25T03:12:03.188Z,2.85
2023-04-25T03:14:30.156Z,3.67
2023-04-25T03:16:57.243Z,2.45
2023-04-25T03:19:24.186Z,2.30
2023-04-25T03:21:51.263Z,2.15
2023-04-25T03:24:18.266Z,2.28
2023-04-25T03:26:45.175Z,2.83
2023-04-25T03:29:12.720Z,2.17
2023-04-25T03:31:39.657Z,2.47
2023-04-25T03:34:06.615Z,2.58
2023-04-25T03:36:33.801Z,2.92
2023-04-25T03:39:00.878Z,2.20
2023-04-25T03:41:28.890Z,2.67
2023-04-25T03:43:55.800Z,2.40
2023-04-25T03:46:22.818Z,2.85
2023-04-25T03:48:49.824Z,2.53
2023-04-25T03:51:16.830Z,2.38
2023-04-25T03:53:43.773Z,2.95
2023-04-25T03:56:10.756Z,1.92
2023-04-25T03:58:37.668Z,2.70
2023-04-25T04:01:08.535Z,2.70
2023-04-25T04:03:37.574Z,2.70
2023-04-25T04:06:06.689Z,2.95
2023-04-25T04:08:34.186Z,3.13
2023-04-25T04:11:01.249Z,3.05
2023-04-25T04:13:29.061Z,2.65
2023-04-25T04:15:56.747Z,3.03
2023-04-25T04:18:23.760Z,2.92
2023-04-25T04:20:50.925Z,3.10
2023-04-25T04:23:18.020Z,2.53
2023-04-25T04:25:45.025Z,2.95
2023-04-25T04:28:12.305Z,3.20
2023-04-25T04:30:40.293Z,2.47
2023-04-25T04:33:08.597Z,2.50
2023-04-25T04:35:35.843Z,3.13
2023-04-25T04:38:02.733Z,2.22
2023-04-25T04:40:31.597Z,3.55
2023-04-25T04:42:58.612Z,2.88
2023-04-25T04:45:25.539Z,2.97
2023-04-25T04:47:52.506Z,2.88
2023-04-25T04:50:19.634Z,2.78
2023-04-25T04:52:46.580Z,2.65
2023-04-25T04:55:13.541Z,3.83
2023-04-25T04:57:40.561Z,2.75
2023-04-25T05:00:11.929Z,2.83
2023-04-25T05:02:40.115Z,2.72
2023-04-25T05:05:07.986Z,2.83
2023-04-25T05:07:35.492Z,2.58
2023-04-25T05:10:02.630Z,3.45
2023-04-25T05:12:29.605Z,3.20
2023-04-25T05:14:56.567Z,2.70
2023-04-25T05:17:23.590Z,2.80
2023-04-25T05:19:51.045Z,2.28
2023-04-25T05:22:18.008Z,3.22
2023-04-25T05:24:44.947Z,2.90
2023-04-25T05:27:11.879Z,3.10
2023-04-25T05:29:38.788Z,2.55
2023-04-25T05:32:07.041Z,2.83
2023-04-25T05:34:34.097Z,2.50
2023-04-25T05:37:01.266Z,2.25
2023-04-25T05:39:28.556Z,2.45
2023-04-25T05:41:55.697Z,2.58
2023-04-25T05:44:22.612Z,2.00
2023-04-25T05:46:49.875Z,2.85
2023-04-25T05:49:19.393Z,2.45
2023-04-25T05:51:46.597Z,2.42
2023-04-25T05:54:13.623Z,3.42
2023-04-25T05:56:40.573Z,2.65
2023-04-25T05:59:07.507Z,3.28
2023-04-25T06:01:34.498Z,2.72
2023-04-25T06:04:01.559Z,2.70
2023-04-25T06:08:56.500Z,2.53
2023-04-25T06:11:23.546Z,2.40
2023-04-25T06:13:50.778Z,3.20
2023-04-25T06:18:44.704Z,2.13
2023-04-25T06:21:11.630Z,3.03
2023-04-25T06:23:38.628Z,3.17
2023-04-25T06:26:05.541Z,2.83
2023-04-25T06:28:33.649Z,2.85
2023-04-25T06:31:00.680Z,2.85
2023-04-25T06:33:27.855Z,3.00
2023-04-25T06:35:54.793Z,2.42
2023-04-25T06:38:21.775Z,2.13
2023-04-25T06:40:48.666Z,2.72
2023-04-25T06:43:15.562Z,2.33
2023-04-25T06:45:44.075Z,2.53
2023-04-25T06:48:11.678Z,2.40
2023-04-25T06:50:38.617Z,2.70
2023-04-25T06:53:05.576Z,2.13
2023-04-25T06:55:32.491Z,2.08
2023-04-25T06:57:59.429Z,1.88
2023-04-25T07:00:26.540Z,1.90
2023-04-25T07:02:53.545Z,2.38
2023-04-25T07:05:20.595Z,2.28
2023-04-25T07:07:47.628Z,2.50
2023-04-25T07:10:14.575Z,2.00
2023-04-25T07:12:41.475Z,2.63
2023-04-25T07:15:11.140Z,1.90
2023-04-25T07:17:38.324Z,2.15
2023-04-25T07:20:07.126Z,1.83
2023-04-25T07:22:34.257Z,2.15
2023-04-25T07:25:01.376Z,1.90
2023-04-25T07:27:28.738Z,1.95
2023-04-25T07:29:55.888Z,1.98
2023-04-25T07:32:23.104Z,1.65
2023-04-25T07:37:17.079Z,2.22
2023-04-25T07:39:44.002Z,2.15
2023-04-25T07:42:10.950Z,2.72
2023-04-25T07:44:39.855Z,2.17
2023-04-25T07:47:11.409Z,2.72
2023-04-25T07:49:38.949Z,2.42
2023-04-25T07:52:09.575Z,2.47
2023-04-25T07:54:36.734Z,2.03
2023-04-25T07:57:03.779Z,1.95
2023-04-25T07:59:31.228Z,2.10
2023-04-25T08:01:58.644Z,1.92
2023-04-25T08:04:26.953Z,2.78
2023-04-25T08:06:57.483Z,1.92
2023-04-25T08:09:24.450Z,1.45
2023-04-25T08:11:51.361Z,1.38
2023-04-25T08:14:18.397Z,2.28
2023-04-25T08:16:45.500Z,1.75
2023-04-25T08:19:12.575Z,1.85
2023-04-25T08:21:39.533Z,1.90
2023-04-25T08:24:06.792Z,2.63
2023-04-25T08:29:02.012Z,2.05
2023-04-25T08:31:28.985Z,3.33
2023-04-25T08:33:56.609Z,1.80
2023-04-25T08:36:37.861Z,1.77
2023-04-25T08:39:06.555Z,1.77
2023-04-25T08:41:33.597Z,1.70
2023-04-25T08:44:02.167Z,2.05
2023-04-25T08:46:29.943Z,1.98
2023-04-25T08:49:05.033Z,2.40
2023-04-25T08:51:37.109Z,1.60
2023-04-25T08:54:28.052Z,1.25
2023-04-25T08:57:03.432Z,2.63
2023-04-25T08:59:31.860Z,3.97
2023-04-25T09:01:59.235Z,1.33
2023-04-25T09:04:26.456Z,1.92
2023-04-25T09:06:53.494Z,1.60
2023-04-25T09:09:20.665Z,1.60
2023-04-25T09:11:47.543Z,1.92
2023-04-25T09:14:22.324Z,1.70
2023-04-25T09:16:58.859Z,2.30
2023-04-25T09:19:39.497Z,1.98
2023-04-25T09:22:08.269Z,1.50
2023-04-25T09:24:44.834Z,2.05
2023-04-25T09:27:13.723Z,1.17
2023-04-25T09:29:42.114Z,1.75
2023-04-25T09:32:18.134Z,1.50
2023-04-25T09:34:49.579Z,1.67
2023-04-25T09:37:31.015Z,1.73
2023-04-25T09:40:06.375Z,1.67
2023-04-25T09:42:35.714Z,1.27
2023-04-25T09:45:04.932Z,1.38
2023-04-25T09:47:32.045Z,1.92
2023-04-25T09:52:26.942Z,1.77
2023-04-25T09:54:54.280Z,1.25
2023-04-25T09:57:23.761Z,1.27
2023-04-25T09:59:55.945Z,1.00
2023-04-25T10:02:26.310Z,1.60
2023-04-25T10:04:56.845Z,1.30
2023-04-25T10:07:29.537Z,1.30
2023-04-25T10:10:04.297Z,2.30
2023-04-25T10:12:33.536Z,1.40
2023-04-25T10:15:01.625Z,1.30
2023-04-25T10:17:31.239Z,1.30
2023-04-25T10:19:59.070Z,1.85
2023-04-25T10:22:38.980Z,1.85
2023-04-25T10:25:07.700Z,2.17
2023-04-25T10:27:35.589Z,1.35
2023-04-25T10:30:16.275Z,1.90
2023-04-25T10:32:44.500Z,1.58
2023-04-25T10:35:33.746Z,1.92
2023-04-25T10:38:10.665Z,2.47
2023-04-25T10:40:37.969Z,1.05
2023-04-25T10:43:33.105Z,1.92
2023-04-25T10:46:04.234Z,1.60
2023-04-25T10:48:32.570Z,1.65
2023-04-25T10:51:09.838Z,2.17
2023-04-25T10:53:36.958Z,1.80
2023-04-25T10:56:22.917Z,2.00
2023-04-25T11:01:25.563Z,1.95
2023-04-25T11:03:59.269Z,1.63
2023-04-25T11:06:55.774Z,1.90
2023-04-25T11:09:25.753Z,1.42
2023-04-25T11:12:01.062Z,1.70
2023-04-25T11:14:28.465Z,1.70
2023-04-25T11:17:00.597Z,2.08
2023-04-25T11:19:29.331Z,1.83
2023-04-25T11:21:57.812Z,1.30
2023-04-25T11:24:32.598Z,1.27
2023-04-25T11:27:00.943Z,2.15
2023-04-25T11:29:28.801Z,1.63
2023-04-25T11:31:59.500Z,1.40
2023-04-25T11:34:27.130Z,1.90
2023-04-25T11:36:54.974Z,1.42
2023-04-25T11:39:22.449Z,1.80
2023-04-25T11:41:49.454Z,1.10
2023-04-25T11:44:20.682Z,1.33
2023-04-25T11:46:48.209Z,1.00
2023-04-25T11:49:16.322Z,1.30
2023-04-25T11:51:45.315Z,1.30
2023-04-25T11:54:13.168Z,1.25
2023-04-25T11:56:44.690Z,1.23
2023-04-25T11:59:12.700Z,1.05
2023-04-25T12:01:49.252Z,1.00
2023-04-25T12:04:19.006Z,1.15
2023-04-25T12:06:49.141Z,0.60
2023-04-25T12:09:22.529Z,0.70
2023-04-25T12:11:53.815Z,1.00
2023-04-25T12:14:28.773Z,1.00
2023-04-25T12:17:00.127Z,1.00
2023-04-25T12:19:33.281Z,0.70
2023-04-25T12:22:02.198Z,0.60
2023-04-25T12:24:29.502Z,1.15
2023-04-25T12:27:05.325Z,0.60
2023-04-25T12:29:48.444Z,0.73
2023-04-25T12:32:16.970Z,0.90
2023-04-25T12:34:44.188Z,0.63
2023-04-25T12:37:11.597Z,0.95
2023-04-25T12:39:38.755Z,1.05
2023-04-25T12:44:36.041Z,0.85
2023-04-25T12:47:04.328Z,0.50
2023-04-25T12:49:31.635Z,1.00
2023-04-25T12:54:26.672Z,0.65
2023-04-25T12:56:53.828Z,0.85
2023-04-25T12:59:21.917Z,0.90
2023-04-25T13:01:49.064Z,0.60
2023-04-25T13:04:17.485Z,0.80
2023-04-25T13:06:44.818Z,0.50
2023-04-25T13:09:13.574Z,0.77
2023-04-25T13:11:42.042Z,0.50
2023-04-25T13:14:09.070Z,0.50
2023-04-25T13:19:03.198Z,0.40
2023-04-25T13:23:58.943Z,0.73
2023-04-25T13:26:26.862Z,0.80
2023-04-25T13:28:53.848Z,0.68
2023-04-25T13:31:20.961Z,0.52
2023-04-25T13:33:48.351Z,0.50
2023-04-25T13:36:15.730Z,0.60
2023-04-25T13:38:45.069Z,0.47
2023-04-25T13:41:16.734Z,0.85
2023-04-25T13:43:43.702Z,0.70
2023-04-25T13:46:24.912Z,0.70
2023-04-25T13:49:02.913Z,0.60
2023-04-25T13:54:04.257Z,0.77
2023-04-25T13:56:31.370Z,0.88
2023-04-25T13:58:58.391Z,0.47
2023-04-25T14:03:52.467Z,0.77
2023-04-25T14:06:23.909Z,0.80
2023-04-25T14:08:54.672Z,1.00
2023-04-25T14:11:21.773Z,0.95
2023-04-25T14:13:50.551Z,0.57
2023-04-25T14:16:18.122Z,0.30
2023-04-25T14:18:45.324Z,0.93
2023-04-25T14:21:12.377Z,0.40
2023-04-25T14:26:06.385Z,1.05
2023-04-25T14:28:33.503Z,0.70
2023-04-25T14:33:27.298Z,0.55
2023-04-25T14:35:54.312Z,0.82
2023-04-25T14:40:52.064Z,0.50
2023-04-25T14:43:19.065Z,0.70
2023-04-25T14:48:13.210Z,0.80
2023-04-25T14:50:40.310Z,0.82
2023-04-25T14:53:07.317Z,0.45
2023-04-25T14:58:01.006Z,0.32
2023-04-25T15:00:27.900Z,0.40
2023-04-25T15:02:55.052Z,0.43
2023-04-25T15:05:22.102Z,0.70
2023-04-25T15:07:49.041Z,0.80
2023-04-25T15:10:17.273Z,0.20
2023-04-25T15:12:46.934Z,0.50
2023-04-25T15:15:22.498Z,0.85
2023-04-25T15:17:52.763Z,0.60
2023-04-25T15:22:47.004Z,0.50
2023-04-25T15:25:14.045Z,0.57
2023-04-25T15:27:44.585Z,0.35
2023-04-25T15:30:18.364Z,0.90
2023-04-25T15:32:46.974Z,0.60
2023-04-25T15:35:15.704Z,0.50
2023-04-25T15:37:42.641Z,0.60
2023-04-25T15:40:16.431Z,0.70
2023-04-25T15:42:44.638Z,0.60
2023-04-25T15:45:12.338Z,0.70
2023-04-25T15:47:39.586Z,0.32
2023-04-25T15:50:09.567Z,0.80
2023-04-25T15:52:37.805Z,0.50
2023-04-25T15:55:05.919Z,0.60
2023-04-25T15:57:35.503Z,0.57
2023-04-25T16:00:13.391Z,0.50
2023-04-25T16:02:41.522Z,0.60
2023-04-25T16:05:09.590Z,0.50
2023-04-25T16:07:37.093Z,0.93
2023-04-25T16:10:04.534Z,0.50
2023-04-25T16:12:31.492Z,0.93
2023-04-25T16:14:58.629Z,0.73
2023-04-25T16:17:26.582Z,0.35
2023-04-25T16:19:53.506Z,0.45
2023-04-25T16:22:21.204Z,0.65
2023-04-25T16:24:48.192Z,0.55
2023-04-25T16:27:15.153Z,0.43
2023-04-25T16:29:42.575Z,0.55
2023-04-25T16:32:09.586Z,0.60
2023-04-25T16:34:36.686Z,0.80
2023-04-25T16:39:30.685Z,0.63
2023-04-25T16:44:24.479Z,0.45
2023-04-25T16:46:51.525Z,0.50
2023-04-25T16:49:18.449Z,0.50
2023-04-25T16:51:46.673Z,0.43
2023-04-25T16:54:13.624Z,0.50
2023-04-25T16:56:41.748Z,0.80
2023-04-25T16:59:08.687Z,0.45
2023-04-25T17:01:36.406Z,0.45
2023-04-25T17:04:03.671Z,0.60
2023-04-25T17:06:30.969Z,0.55
2023-04-25T17:11:24.876Z,0.47
2023-04-25T17:13:52.051Z,0.50
2023-04-25T17:16:23.303Z,0.60
2023-04-25T17:18:51.519Z,0.60
2023-04-25T17:21:18.819Z,0.68
2023-04-25T17:26:13.336Z,0.70
2023-04-25T17:28:42.164Z,0.73
2023-04-25T17:31:09.868Z,1.00
2023-04-25T17:33:36.924Z,0.75
2023-04-25T17:36:04.253Z,0.85
2023-04-25T17:38:32.064Z,0.73
2023-04-25T17:40:59.191Z,1.00
2023-04-25T17:43:27.794Z,1.13
2023-04-25T17:45:55.159Z,0.80
2023-04-25T17:48:22.984Z,0.73
2023-04-25T17:50:50.048Z,0.80
2023-04-25T17:53:17.093Z,0.43
2023-04-25T17:55:44.178Z,0.80
2023-04-25T17:58:11.859Z,1.33
2023-04-25T18:00:39.510Z,1.70
2023-04-25T18:03:07.710Z,1.45
2023-04-25T18:05:34.926Z,1.25
2023-04-25T18:08:02.127Z,0.70
2023-04-25T18:10:29.148Z,0.93
2023-04-25T18:12:56.089Z,1.30
2023-04-25T18:15:23.203Z,1.35
2023-04-25T18:17:50.410Z,1.10
2023-04-25T18:20:17.687Z,0.82
2023-04-25T18:25:13.826Z,0.98
2023-04-25T18:27:41.736Z,1.10
2023-04-25T18:30:10.821Z,0.68
2023-04-25T18:32:38.515Z,1.10
2023-04-25T18:35:06.075Z,0.60
2023-04-25T18:37:33.119Z,3.85
2023-04-25T18:40:00.819Z,1.80
2023-04-25T18:42:28.451Z,3.03
2023-04-25T18:44:55.453Z,1.83
2023-04-25T18:47:22.393Z,6.07
2023-04-25T18:49:50.980Z,1.17
2023-04-25T18:52:19.175Z,0.93
2023-04-25T18:54:46.179Z,0.50
2023-04-25T18:57:15.196Z,0.82
2023-04-25T18:59:44.393Z,0.90
2023-04-25T19:02:12.635Z,0.90
2023-04-25T19:04:39.820Z,0.90
2023-04-25T19:07:06.886Z,1.05
2023-04-25T19:09:33.885Z,1.17
2023-04-25T19:12:01.916Z,1.10
2023-04-25T19:14:28.944Z,0.68
2023-04-25T19:16:59.175Z,1.23
2023-04-25T19:19:27.495Z,0.60
2023-04-25T19:21:54.810Z,0.68
2023-04-25T19:24:22.332Z,1.40
2023-04-25T19:26:49.456Z,0.85
2023-04-25T19:29:16.708Z,1.25
2023-04-25T19:31:45.639Z,1.45
2023-04-25T19:34:13.988Z,1.00
2023-04-25T19:36:42.688Z,0.98
2023-04-25T19:39:11.145Z,0.93
2023-04-25T19:41:39.150Z,0.88
2023-04-25T19:44:08.563Z,2.25
2023-04-25T19:46:37.027Z,3.80
2023-04-25T19:49:08.363Z,1.42
2023-04-25T19:51:36.735Z,1.75
2023-04-25T19:54:04.467Z,1.80
2023-04-25T19:56:31.487Z,1.80
2023-04-25T19:58:58.597Z,2.08
2023-04-25T20:01:26.334Z,1.45
2023-04-25T20:03:53.883Z,4.32
2023-04-25T20:06:21.748Z,1.67
2023-04-25T20:08:49.332Z,2.25
2023-04-25T20:11:16.489Z,1.02
2023-04-25T20:13:43.633Z,1.23
2023-04-25T20:16:10.875Z,2.38
2023-04-25T20:18:37.875Z,1.27
2023-04-25T20:21:04.840Z,0.80
2023-04-25T20:23:31.768Z,1.17
2023-04-25T20:25:58.679Z,1.15
2023-04-25T20:28:27.460Z,1.00
2023-04-25T20:30:54.482Z,1.25
2023-04-25T20:33:24.582Z,1.10
2023-04-25T20:35:51.515Z,1.23
2023-04-25T20:38:18.431Z,1.17
2023-04-25T20:40:45.538Z,2.10
2023-04-25T20:43:12.901Z,1.70
2023-04-25T20:48:07.238Z,1.38
2023-04-25T20:50:34.573Z,1.80
2023-04-25T20:53:01.457Z,1.83
2023-04-25T20:55:28.417Z,3.10
2023-04-25T20:57:56.046Z,2.75
2023-04-25T21:00:31.723Z,2.15
2023-04-25T21:02:58.953Z,2.20
2023-04-25T21:05:26.075Z,1.85
2023-04-25T21:07:53.058Z,2.28
2023-04-25T21:10:20.054Z,1.73
2023-04-25T21:12:50.044Z,2.85
2023-04-25T21:15:20.362Z,2.42
2023-04-25T21:17:48.089Z,2.67
2023-04-25T21:20:17.941Z,3.83
2023-04-25T21:22:54.261Z,2.13
2023-04-25T21:25:29.299Z,2.55
2023-04-25T21:27:56.401Z,2.05
2023-04-25T21:30:24.908Z,1.90
2023-04-25T21:32:52.763Z,1.60
2023-04-25T21:35:21.093Z,1.45
2023-04-25T21:37:48.456Z,1.50
2023-04-25T21:40:15.695Z,1.73
2023-04-25T21:42:44.750Z,1.25
2023-04-25T21:45:12.446Z,1.73
2023-04-25T21:47:39.527Z,0.90
2023-04-25T21:50:07.584Z,0.85
2023-04-25T21:52:36.653Z,1.13
2023-04-25T21:55:03.742Z,1.45
2023-04-25T21:57:30.818Z,1.58
2023-04-25T21:59:57.876Z,1.30
2023-04-25T22:02:24.997Z,1.30
2023-04-25T22:04:52.685Z,1.45
2023-04-25T22:07:19.923Z,1.27
2023-04-25T22:09:54.268Z,1.40
2023-04-25T22:12:22.842Z,1.42
2023-04-25T22:14:50.290Z,1.52
2023-04-25T22:17:17.970Z,1.50
2023-04-25T22:19:45.313Z,1.40
2023-04-25T22:22:12.285Z,1.40
2023-04-25T22:24:39.374Z,1.38
2023-04-25T22:27:06.737Z,1.33
2023-04-25T22:29:34.263Z,1.20
2023-04-25T22:34:28.756Z,1.20
2023-04-25T22:36:55.852Z,1.15
2023-04-25T22:39:23.338Z,1.90
2023-04-25T22:46:43.933Z,0.90
2023-04-25T22:49:10.915Z,1.20
2023-04-25T22:51:37.924Z,1.13
2023-04-25T22:54:05.560Z,1.10
2023-04-25T22:56:35.591Z,0.93
2023-04-25T22:59:02.471Z,1.40
2023-04-25T23:01:29.684Z,1.13
2023-04-25T23:03:57.972Z,0.90
2023-04-25T23:06:25.144Z,0.88
2023-04-25T23:08:52.264Z,1.00
2023-04-25T23:11:20.515Z,0.75
2023-04-25T23:13:47.727Z,1.00
2023-04-25T23:16:14.853Z,1.20
2023-04-25T23:18:41.819Z,0.82
2023-04-25T23:21:28.287Z,0.80
2023-04-25T23:23:55.347Z,0.95
2023-04-25T23:26:22.355Z,0.75
2023-04-25T23:28:49.331Z,1.00
2023-04-25T23:31:16.515Z,0.95
2023-04-25T23:33:43.437Z,1.33
2023-04-25T23:36:21.488Z,1.05
2023-04-25T23:38:50.605Z,1.33
2023-04-25T23:41:18.245Z,1.50
2023-04-25T23:48:39.554Z,1.10
2023-04-25T23:51:06.904Z,1.13
2023-04-25T23:53:33.809Z,1.67
2023-04-25T23:56:00.874Z,1.33
2023-04-25T23:58:27.800Z,1.10
